sensor_id;sensor_type;location;lat;lon;timestamp;temperature;humidity
19805;DHT22;10062;51.052;13.756;2022-09-04T00:02:06;17.60;1.00
19805;DHT22;10062;51.052;13.756;2022-09-04T00:04:48;17.60;1.00
19805;DHT22;10062;51.052;13.756;2022-09-04T00:07:26;17.60;17.50
19805;DHT22;10062;51.052;13.756;2022-09-04T00:10:06;17.70;1.00
19805;DHT22;10062;51.052;13.756;2022-09-04T00:12:45;17.70;1.00
19805;DHT22;10062;51.052;13.756;2022-09-04T00:15:23;16.80;1.00
19805;DHT22;10062;51.052;13.756;2022-09-04T00:18:02;17.80;99.90
19805;DHT22;10062;51.052;13.756;2022-09-04T00:20:40;17.80;99.90
19805;DHT22;10062;51.052;13.756;2022-09-04T00:23:17;17.80;20.70
19805;DHT22;10062;51.052;13.756;2022-09-04T00:25:55;17.80;55.70
19805;DHT22;10062;51.052;13.756;2022-09-04T00:28:33;17.80;1.00
19805;DHT22;10062;51.052;13.756;2022-09-04T00:31:14;17.80;99.90
19805;DHT22;10062;51.052;13.756;2022-09-04T00:33:58;17.80;99.90
19805;DHT22;10062;51.052;13.756;2022-09-04T00:36:34;17.80;99.90
19805;DHT22;10062;51.052;13.756;2022-09-04T00:39:10;17.70;99.90
19805;DHT22;10062;51.052;13.756;2022-09-04T00:41:54;17.70;2.70
19805;DHT22;10062;51.052;13.756;2022-09-04T00:44:57;17.70;99.90
19805;DHT22;10062;51.052;13.756;2022-09-04T00:47:59;17.70;1.00
19805;DHT22;10062;51.052;13.756;2022-09-04T00:50:50;17.70;1.00
19805;DHT22;10062;51.052;13.756;2022-09-04T00:53:35;17.70;99.90
19805;DHT22;10062;51.052;13.756;2022-09-04T00:56:25;17.70;1.00
19805;DHT22;10062;51.052;13.756;2022-09-04T00:59:05;17.70;1.00
19805;DHT22;10062;51.052;13.756;2022-09-04T01:01:39;17.70;99.90
19805;DHT22;10062;51.052;13.756;2022-09-04T01:04:25;17.70;17.00
19805;DHT22;10062;51.052;13.756;2022-09-04T01:07:10;17.70;99.90
19805;DHT22;10062;51.052;13.756;2022-09-04T01:10:07;17.60;99.90
19805;DHT22;10062;51.052;13.756;2022-09-04T01:12:48;17.50;99.90
19805;DHT22;10062;51.052;13.756;2022-09-04T01:15:26;17.50;1.00
19805;DHT22;10062;51.052;13.756;2022-09-04T01:18:05;17.40;1.00
19805;DHT22;10062;51.052;13.756;2022-09-04T01:21:02;17.30;99.90
19805;DHT22;10062;51.052;13.756;2022-09-04T01:23:51;17.40;1.00
19805;DHT22;10062;51.052;13.756;2022-09-04T01:26:32;17.40;1.00
19805;DHT22;10062;51.052;13.756;2022-09-04T01:29:15;17.40;1.00
19805;DHT22;10062;51.052;13.756;2022-09-04T01:31:54;17.10;99.90
19805;DHT22;10062;51.052;13.756;2022-09-04T01:34:37;17.00;1.00
19805;DHT22;10062;51.052;13.756;2022-09-04T01:37:19;17.00;1.00
19805;DHT22;10062;51.052;13.756;2022-09-04T01:40:02;17.00;99.90
19805;DHT22;10062;51.052;13.756;2022-09-04T01:42:42;17.00;1.00
19805;DHT22;10062;51.052;13.756;2022-09-04T01:45:24;17.10;99.90
19805;DHT22;10062;51.052;13.756;2022-09-04T01:48:02;17.20;1.00
19805;DHT22;10062;51.052;13.756;2022-09-04T01:50:38;17.00;99.90
19805;DHT22;10062;51.052;13.756;2022-09-04T01:53:17;17.10;1.00
19805;DHT22;10062;51.052;13.756;2022-09-04T01:55:57;17.10;99.90
19805;DHT22;10062;51.052;13.756;2022-09-04T01:58:39;17.20;99.90
19805;DHT22;10062;51.052;13.756;2022-09-04T02:01:21;17.20;1.00
19805;DHT22;10062;51.052;13.756;2022-09-04T02:04:01;17.20;99.90
19805;DHT22;10062;51.052;13.756;2022-09-04T02:06:43;17.20;1.00
19805;DHT22;10062;51.052;13.756;2022-09-04T02:09:26;16.90;1.00
19805;DHT22;10062;51.052;13.756;2022-09-04T02:12:07;17.00;1.00
19805;DHT22;10062;51.052;13.756;2022-09-04T02:14:48;17.10;1.00
19805;DHT22;10062;51.052;13.756;2022-09-04T02:17:34;17.10;99.90
19805;DHT22;10062;51.052;13.756;2022-09-04T02:20:19;17.20;99.90
19805;DHT22;10062;51.052;13.756;2022-09-04T02:23:03;17.20;1.00
19805;DHT22;10062;51.052;13.756;2022-09-04T02:25:44;17.10;1.00
19805;DHT22;10062;51.052;13.756;2022-09-04T02:28:24;17.10;1.00
19805;DHT22;10062;51.052;13.756;2022-09-04T02:31:06;17.10;99.90
19805;DHT22;10062;51.052;13.756;2022-09-04T02:33:48;17.10;1.00
19805;DHT22;10062;51.052;13.756;2022-09-04T02:36:23;17.10;1.00
19805;DHT22;10062;51.052;13.756;2022-09-04T02:39:02;17.10;99.90
19805;DHT22;10062;51.052;13.756;2022-09-04T02:41:42;16.80;99.90
19805;DHT22;10062;51.052;13.756;2022-09-04T02:44:28;16.80;99.90
19805;DHT22;10062;51.052;13.756;2022-09-04T02:47:12;16.90;1.00
19805;DHT22;10062;51.052;13.756;2022-09-04T02:49:53;16.80;1.00
19805;DHT22;10062;51.052;13.756;2022-09-04T02:52:51;16.90;1.00
19805;DHT22;10062;51.052;13.756;2022-09-04T02:55:39;16.70;99.90
19805;DHT22;10062;51.052;13.756;2022-09-04T02:58:22;16.70;1.00
19805;DHT22;10062;51.052;13.756;2022-09-04T03:01:01;16.70;1.00
19805;DHT22;10062;51.052;13.756;2022-09-04T03:03:42;16.80;1.00
19805;DHT22;10062;51.052;13.756;2022-09-04T03:06:19;16.90;1.00
19805;DHT22;10062;51.052;13.756;2022-09-04T03:08:56;16.90;42.70
19805;DHT22;10062;51.052;13.756;2022-09-04T03:11:37;16.80;99.90
19805;DHT22;10062;51.052;13.756;2022-09-04T03:14:16;16.70;99.90
19805;DHT22;10062;51.052;13.756;2022-09-04T03:16:54;16.80;49.20
19805;DHT22;10062;51.052;13.756;2022-09-04T03:19:34;16.80;1.00
19805;DHT22;10062;51.052;13.756;2022-09-04T03:22:15;16.80;99.90
19805;DHT22;10062;51.052;13.756;2022-09-04T03:25:09;16.70;99.90
19805;DHT22;10062;51.052;13.756;2022-09-04T03:27:42;16.80;99.90
19805;DHT22;10062;51.052;13.756;2022-09-04T03:30:14;16.80;99.90
19805;DHT22;10062;51.052;13.756;2022-09-04T03:32:52;16.80;99.90
19805;DHT22;10062;51.052;13.756;2022-09-04T03:35:32;16.80;1.00
19805;DHT22;10062;51.052;13.756;2022-09-04T03:38:16;16.80;1.00
19805;DHT22;10062;51.052;13.756;2022-09-04T03:40:56;16.80;1.00
19805;DHT22;10062;51.052;13.756;2022-09-04T03:43:46;16.70;1.00
19805;DHT22;10062;51.052;13.756;2022-09-04T03:46:33;16.80;1.00
19805;DHT22;10062;51.052;13.756;2022-09-04T03:49:13;16.80;95.70
19805;DHT22;10062;51.052;13.756;2022-09-04T03:51:57;16.80;1.00
19805;DHT22;10062;51.052;13.756;2022-09-04T03:54:38;16.70;1.00
19805;DHT22;10062;51.052;13.756;2022-09-04T03:57:25;16.60;1.00
19805;DHT22;10062;51.052;13.756;2022-09-04T04:00:04;16.50;1.00
19805;DHT22;10062;51.052;13.756;2022-09-04T04:03:00;16.50;99.90
19805;DHT22;10062;51.052;13.756;2022-09-04T04:05:47;16.60;99.90
19805;DHT22;10062;51.052;13.756;2022-09-04T04:08:56;16.60;99.90
19805;DHT22;10062;51.052;13.756;2022-09-04T04:11:41;16.60;1.00
19805;DHT22;10062;51.052;13.756;2022-09-04T04:14:33;16.50;99.90
19805;DHT22;10062;51.052;13.756;2022-09-04T04:17:22;16.50;99.90
19805;DHT22;10062;51.052;13.756;2022-09-04T04:20:12;16.60;99.90
19805;DHT22;10062;51.052;13.756;2022-09-04T04:22:57;16.50;1.00
19805;DHT22;10062;51.052;13.756;2022-09-04T04:25:48;16.30;1.00
19805;DHT22;10062;51.052;13.756;2022-09-04T04:28:42;16.30;99.90
19805;DHT22;10062;51.052;13.756;2022-09-04T04:31:22;16.30;99.90
19805;DHT22;10062;51.052;13.756;2022-09-04T04:34:03;16.30;99.90
19805;DHT22;10062;51.052;13.756;2022-09-04T04:36:41;16.30;99.90
19805;DHT22;10062;51.052;13.756;2022-09-04T04:39:21;16.20;99.90
19805;DHT22;10062;51.052;13.756;2022-09-04T04:42:17;16.20;99.90
19805;DHT22;10062;51.052;13.756;2022-09-04T04:45:16;16.30;99.90
19805;DHT22;10062;51.052;13.756;2022-09-04T04:51:25;16.30;1.00
19805;DHT22;10062;51.052;13.756;2022-09-04T04:54:16;16.30;1.00
19805;DHT22;10062;51.052;13.756;2022-09-04T04:56:56;16.30;1.00
19805;DHT22;10062;51.052;13.756;2022-09-04T04:59:38;16.40;99.90
19805;DHT22;10062;51.052;13.756;2022-09-04T05:02:19;16.20;99.90
19805;DHT22;10062;51.052;13.756;2022-09-04T05:04:55;16.20;1.00
19805;DHT22;10062;51.052;13.756;2022-09-04T05:07:35;15.90;1.00
19805;DHT22;10062;51.052;13.756;2022-09-04T05:10:15;15.80;1.00
19805;DHT22;10062;51.052;13.756;2022-09-04T05:12:54;15.70;1.00
19805;DHT22;10062;51.052;13.756;2022-09-04T05:15:36;15.60;1.00
19805;DHT22;10062;51.052;13.756;2022-09-04T05:18:15;15.80;1.00
19805;DHT22;10062;51.052;13.756;2022-09-04T05:20:54;15.70;1.00
19805;DHT22;10062;51.052;13.756;2022-09-04T05:23:33;15.80;1.00
19805;DHT22;10062;51.052;13.756;2022-09-04T05:26:10;15.70;1.00
19805;DHT22;10062;51.052;13.756;2022-09-04T05:28:53;15.40;1.00
19805;DHT22;10062;51.052;13.756;2022-09-04T05:31:34;15.60;1.00
19805;DHT22;10062;51.052;13.756;2022-09-04T05:34:13;15.80;1.00
19805;DHT22;10062;51.052;13.756;2022-09-04T05:36:58;15.90;1.00
19805;DHT22;10062;51.052;13.756;2022-09-04T05:39:37;16.00;1.00
19805;DHT22;10062;51.052;13.756;2022-09-04T05:42:40;15.70;1.00
19805;DHT22;10062;51.052;13.756;2022-09-04T05:45:22;15.60;1.00
19805;DHT22;10062;51.052;13.756;2022-09-04T05:48:06;15.40;1.00
19805;DHT22;10062;51.052;13.756;2022-09-04T05:50:52;15.60;1.00
19805;DHT22;10062;51.052;13.756;2022-09-04T05:56:43;15.80;1.00
19805;DHT22;10062;51.052;13.756;2022-09-04T05:59:30;15.80;1.00
19805;DHT22;10062;51.052;13.756;2022-09-04T06:02:28;15.90;1.00
19805;DHT22;10062;51.052;13.756;2022-09-04T06:05:17;16.10;1.00
19805;DHT22;10062;51.052;13.756;2022-09-04T06:07:59;16.20;1.00
19805;DHT22;10062;51.052;13.756;2022-09-04T06:10:43;16.10;1.00
19805;DHT22;10062;51.052;13.756;2022-09-04T06:13:28;16.20;99.90
19805;DHT22;10062;51.052;13.756;2022-09-04T06:16:16;16.40;1.00
19805;DHT22;10062;51.052;13.756;2022-09-04T06:28:45;17.20;1.00
19805;DHT22;10062;51.052;13.756;2022-09-04T06:31:42;17.50;1.00
19805;DHT22;10062;51.052;13.756;2022-09-04T06:34:28;17.70;99.90
19805;DHT22;10062;51.052;13.756;2022-09-04T06:37:11;17.90;19.00
19805;DHT22;10062;51.052;13.756;2022-09-04T06:39:58;18.20;1.00
19805;DHT22;10062;51.052;13.756;2022-09-04T06:42:47;18.50;1.00
19805;DHT22;10062;51.052;13.756;2022-09-04T06:45:29;18.70;1.00
19805;DHT22;10062;51.052;13.756;2022-09-04T06:48:07;19.00;99.90
19805;DHT22;10062;51.052;13.756;2022-09-04T06:50:50;19.40;99.90
19805;DHT22;10062;51.052;13.756;2022-09-04T06:53:35;19.80;1.00
19805;DHT22;10062;51.052;13.756;2022-09-04T06:59:43;20.60;99.90
19805;DHT22;10062;51.052;13.756;2022-09-04T07:02:27;21.10;1.00
19805;DHT22;10062;51.052;13.756;2022-09-04T07:05:12;21.30;99.90
19805;DHT22;10062;51.052;13.756;2022-09-04T07:07:52;21.70;99.90
19805;DHT22;10062;51.052;13.756;2022-09-04T07:10:33;22.20;1.00
19805;DHT22;10062;51.052;13.756;2022-09-04T07:16:11;24.70;99.90
19805;DHT22;10062;51.052;13.756;2022-09-04T07:19:00;26.50;1.00
19805;DHT22;10062;51.052;13.756;2022-09-04T07:21:46;28.00;1.00
19805;DHT22;10062;51.052;13.756;2022-09-04T07:24:43;29.30;1.00
19805;DHT22;10062;51.052;13.756;2022-09-04T07:27:26;30.60;1.00
19805;DHT22;10062;51.052;13.756;2022-09-04T07:30:06;31.50;1.00
19805;DHT22;10062;51.052;13.756;2022-09-04T07:32:44;32.00;1.00
19805;DHT22;10062;51.052;13.756;2022-09-04T07:35:20;32.10;1.00
19805;DHT22;10062;51.052;13.756;2022-09-04T07:37:56;32.00;1.00
19805;DHT22;10062;51.052;13.756;2022-09-04T07:40:34;32.10;1.00
19805;DHT22;10062;51.052;13.756;2022-09-04T07:43:12;32.10;1.00
19805;DHT22;10062;51.052;13.756;2022-09-04T07:45:51;31.70;1.00
19805;DHT22;10062;51.052;13.756;2022-09-04T07:48:33;31.10;1.00
19805;DHT22;10062;51.052;13.756;2022-09-04T07:51:09;29.80;1.00
19805;DHT22;10062;51.052;13.756;2022-09-04T07:54:13;27.80;1.00
19805;DHT22;10062;51.052;13.756;2022-09-04T07:57:08;27.50;1.00
19805;DHT22;10062;51.052;13.756;2022-09-04T07:59:59;27.40;1.00
19805;DHT22;10062;51.052;13.756;2022-09-04T08:02:58;27.50;1.00
19805;DHT22;10062;51.052;13.756;2022-09-04T08:05:37;27.70;1.00
19805;DHT22;10062;51.052;13.756;2022-09-04T08:08:40;28.20;1.00
19805;DHT22;10062;51.052;13.756;2022-09-04T08:11:30;29.00;1.00
19805;DHT22;10062;51.052;13.756;2022-09-04T08:14:20;28.70;1.00
19805;DHT22;10062;51.052;13.756;2022-09-04T08:17:28;29.20;1.00
19805;DHT22;10062;51.052;13.756;2022-09-04T08:20:10;28.70;1.00
19805;DHT22;10062;51.052;13.756;2022-09-04T08:22:54;30.60;1.00
19805;DHT22;10062;51.052;13.756;2022-09-04T08:25:39;33.70;1.00
19805;DHT22;10062;51.052;13.756;2022-09-04T08:28:27;36.00;1.00
19805;DHT22;10062;51.052;13.756;2022-09-04T08:31:06;36.30;1.00
19805;DHT22;10062;51.052;13.756;2022-09-04T08:34:22;37.70;1.00
19805;DHT22;10062;51.052;13.756;2022-09-04T08:37:02;35.70;1.00
19805;DHT22;10062;51.052;13.756;2022-09-04T08:39:47;35.00;1.00
19805;DHT22;10062;51.052;13.756;2022-09-04T08:42:46;33.90;1.00
19805;DHT22;10062;51.052;13.756;2022-09-04T08:45:58;33.80;1.00
19805;DHT22;10062;51.052;13.756;2022-09-04T08:49:02;34.90;1.00
19805;DHT22;10062;51.052;13.756;2022-09-04T08:55:00;38.90;1.00
19805;DHT22;10062;51.052;13.756;2022-09-04T08:57:49;41.10;1.00
19805;DHT22;10062;51.052;13.756;2022-09-04T09:00:29;42.90;1.00
19805;DHT22;10062;51.052;13.756;2022-09-04T09:06:41;45.20;1.00
19805;DHT22;10062;51.052;13.756;2022-09-04T09:09:49;46.20;1.00
19805;DHT22;10062;51.052;13.756;2022-09-04T09:16:00;47.50;1.00
19805;DHT22;10062;51.052;13.756;2022-09-04T09:19:06;47.80;1.00
19805;DHT22;10062;51.052;13.756;2022-09-04T09:21:44;48.20;1.00
19805;DHT22;10062;51.052;13.756;2022-09-04T09:28:07;46.00;1.00
19805;DHT22;10062;51.052;13.756;2022-09-04T09:31:19;46.50;1.00
19805;DHT22;10062;51.052;13.756;2022-09-04T09:34:41;48.20;1.00
19805;DHT22;10062;51.052;13.756;2022-09-04T09:37:37;47.90;1.00
19805;DHT22;10062;51.052;13.756;2022-09-04T09:40:30;49.10;1.00
19805;DHT22;10062;51.052;13.756;2022-09-04T09:46:35;48.90;1.00
19805;DHT22;10062;51.052;13.756;2022-09-04T09:52:25;50.90;1.00
19805;DHT22;10062;51.052;13.756;2022-09-04T09:55:20;51.50;1.00
19805;DHT22;10062;51.052;13.756;2022-09-04T10:01:25;46.10;1.00
19805;DHT22;10062;51.052;13.756;2022-09-04T10:04:20;47.90;1.00
19805;DHT22;10062;51.052;13.756;2022-09-04T10:07:28;49.80;1.00
19805;DHT22;10062;51.052;13.756;2022-09-04T10:10:38;51.10;1.00
19805;DHT22;10062;51.052;13.756;2022-09-04T10:16:21;51.00;1.00
19805;DHT22;10062;51.052;13.756;2022-09-04T10:19:17;52.10;1.00
19805;DHT22;10062;51.052;13.756;2022-09-04T10:22:19;49.90;1.00
19805;DHT22;10062;51.052;13.756;2022-09-04T10:28:16;52.00;1.00
19805;DHT22;10062;51.052;13.756;2022-09-04T10:31:10;51.90;1.00
19805;DHT22;10062;51.052;13.756;2022-09-04T10:33:59;46.20;1.00
19805;DHT22;10062;51.052;13.756;2022-09-04T10:36:39;49.30;1.00
19805;DHT22;10062;51.052;13.756;2022-09-04T10:39:21;51.40;1.00
19805;DHT22;10062;51.052;13.756;2022-09-04T10:42:25;51.70;1.00
19805;DHT22;10062;51.052;13.756;2022-09-04T10:45:13;53.00;1.00
19805;DHT22;10062;51.052;13.756;2022-09-04T10:48:12;54.10;1.00
19805;DHT22;10062;51.052;13.756;2022-09-04T10:51:02;54.50;1.00
19805;DHT22;10062;51.052;13.756;2022-09-04T10:53:56;55.00;1.00
19805;DHT22;10062;51.052;13.756;2022-09-04T10:56:40;55.10;1.00
19805;DHT22;10062;51.052;13.756;2022-09-04T10:59:32;55.10;1.00
19805;DHT22;10062;51.052;13.756;2022-09-04T11:05:50;54.30;1.00
19805;DHT22;10062;51.052;13.756;2022-09-04T11:08:48;52.10;1.00
19805;DHT22;10062;51.052;13.756;2022-09-04T11:11:32;48.70;1.00
19805;DHT22;10062;51.052;13.756;2022-09-04T11:14:30;43.80;1.00
19805;DHT22;10062;51.052;13.756;2022-09-04T11:17:28;43.10;1.00
19805;DHT22;10062;51.052;13.756;2022-09-04T11:20:29;42.00;1.00
19805;DHT22;10062;51.052;13.756;2022-09-04T11:23:38;40.40;1.00
19805;DHT22;10062;51.052;13.756;2022-09-04T11:29:33;37.50;1.00
19805;DHT22;10062;51.052;13.756;2022-09-04T11:32:38;36.30;1.00
19805;DHT22;10062;51.052;13.756;2022-09-04T11:35:36;35.40;1.00
19805;DHT22;10062;51.052;13.756;2022-09-04T11:38:15;33.50;1.00
19805;DHT22;10062;51.052;13.756;2022-09-04T11:41:40;33.00;1.00
19805;DHT22;10062;51.052;13.756;2022-09-04T11:50:47;31.40;1.00
19805;DHT22;10062;51.052;13.756;2022-09-04T11:53:35;31.10;1.00
19805;DHT22;10062;51.052;13.756;2022-09-04T11:56:32;31.30;1.00
19805;DHT22;10062;51.052;13.756;2022-09-04T11:59:26;31.30;1.00
19805;DHT22;10062;51.052;13.756;2022-09-04T12:02:22;31.50;1.00
19805;DHT22;10062;51.052;13.756;2022-09-04T12:05:12;31.80;1.00
19805;DHT22;10062;51.052;13.756;2022-09-04T12:08:01;32.10;1.00
19805;DHT22;10062;51.052;13.756;2022-09-04T12:10:53;32.00;1.00
19805;DHT22;10062;51.052;13.756;2022-09-04T12:14:03;32.00;1.00
19805;DHT22;10062;51.052;13.756;2022-09-04T12:17:03;31.90;1.00
19805;DHT22;10062;51.052;13.756;2022-09-04T12:22:58;31.80;1.00
19805;DHT22;10062;51.052;13.756;2022-09-04T12:26:04;31.70;1.00
19805;DHT22;10062;51.052;13.756;2022-09-04T12:28:51;31.50;1.00
19805;DHT22;10062;51.052;13.756;2022-09-04T12:31:44;31.10;1.00
19805;DHT22;10062;51.052;13.756;2022-09-04T12:38:00;30.80;1.00
19805;DHT22;10062;51.052;13.756;2022-09-04T12:40:44;30.70;1.00
19805;DHT22;10062;51.052;13.756;2022-09-04T12:43:25;31.20;1.00
19805;DHT22;10062;51.052;13.756;2022-09-04T12:46:14;31.70;1.00
19805;DHT22;10062;51.052;13.756;2022-09-04T12:49:02;32.10;1.00
19805;DHT22;10062;51.052;13.756;2022-09-04T12:51:43;32.20;1.00
19805;DHT22;10062;51.052;13.756;2022-09-04T12:54:27;32.10;1.00
19805;DHT22;10062;51.052;13.756;2022-09-04T12:57:13;31.80;1.00
19805;DHT22;10062;51.052;13.756;2022-09-04T12:59:58;31.60;1.00
19805;DHT22;10062;51.052;13.756;2022-09-04T13:02:39;31.40;1.00
19805;DHT22;10062;51.052;13.756;2022-09-04T13:05:38;31.40;1.00
19805;DHT22;10062;51.052;13.756;2022-09-04T13:08:19;31.70;1.00
19805;DHT22;10062;51.052;13.756;2022-09-04T13:10:59;31.80;1.00
19805;DHT22;10062;51.052;13.756;2022-09-04T13:13:41;32.10;1.00
19805;DHT22;10062;51.052;13.756;2022-09-04T13:16:20;32.20;1.00
19805;DHT22;10062;51.052;13.756;2022-09-04T13:19:03;32.30;1.00
19805;DHT22;10062;51.052;13.756;2022-09-04T13:21:53;32.40;1.00
19805;DHT22;10062;51.052;13.756;2022-09-04T13:24:37;32.50;1.00
19805;DHT22;10062;51.052;13.756;2022-09-04T13:27:23;32.50;1.00
19805;DHT22;10062;51.052;13.756;2022-09-04T13:30:03;32.50;1.00
19805;DHT22;10062;51.052;13.756;2022-09-04T13:33:16;32.60;1.00
19805;DHT22;10062;51.052;13.756;2022-09-04T13:36:10;32.70;1.00
19805;DHT22;10062;51.052;13.756;2022-09-04T13:39:04;32.70;1.00
19805;DHT22;10062;51.052;13.756;2022-09-04T13:42:03;32.60;1.00
19805;DHT22;10062;51.052;13.756;2022-09-04T13:44:50;32.70;1.00
19805;DHT22;10062;51.052;13.756;2022-09-04T13:47:25;32.90;1.00
19805;DHT22;10062;51.052;13.756;2022-09-04T13:50:05;33.10;1.00
19805;DHT22;10062;51.052;13.756;2022-09-04T13:52:43;32.90;1.00
19805;DHT22;10062;51.052;13.756;2022-09-04T13:55:20;32.90;1.00
19805;DHT22;10062;51.052;13.756;2022-09-04T13:57:59;33.10;1.00
19805;DHT22;10062;51.052;13.756;2022-09-04T14:00:34;33.20;1.00
19805;DHT22;10062;51.052;13.756;2022-09-04T14:03:10;33.20;1.00
19805;DHT22;10062;51.052;13.756;2022-09-04T14:05:43;33.00;1.00
19805;DHT22;10062;51.052;13.756;2022-09-04T14:08:15;33.10;1.00
19805;DHT22;10062;51.052;13.756;2022-09-04T14:11:10;32.80;1.00
19805;DHT22;10062;51.052;13.756;2022-09-04T14:14:03;32.50;1.00
19805;DHT22;10062;51.052;13.756;2022-09-04T14:16:42;32.80;1.00
19805;DHT22;10062;51.052;13.756;2022-09-04T14:19:38;32.90;1.00
19805;DHT22;10062;51.052;13.756;2022-09-04T14:22:24;32.90;1.00
19805;DHT22;10062;51.052;13.756;2022-09-04T14:25:04;32.40;1.00
19805;DHT22;10062;51.052;13.756;2022-09-04T14:27:42;32.50;1.00
19805;DHT22;10062;51.052;13.756;2022-09-04T14:30:18;32.40;1.00
19805;DHT22;10062;51.052;13.756;2022-09-04T14:33:04;32.30;1.00
19805;DHT22;10062;51.052;13.756;2022-09-04T14:35:44;31.30;1.00
19805;DHT22;10062;51.052;13.756;2022-09-04T14:38:32;31.30;1.00
19805;DHT22;10062;51.052;13.756;2022-09-04T14:41:17;31.30;1.00
19805;DHT22;10062;51.052;13.756;2022-09-04T14:43:57;30.50;1.00
19805;DHT22;10062;51.052;13.756;2022-09-04T14:46:41;30.30;1.00
19805;DHT22;10062;51.052;13.756;2022-09-04T14:49:19;30.40;1.00
19805;DHT22;10062;51.052;13.756;2022-09-04T14:51:54;30.30;1.00
19805;DHT22;10062;51.052;13.756;2022-09-04T14:54:28;30.00;1.00
19805;DHT22;10062;51.052;13.756;2022-09-04T14:57:10;29.90;1.00
19805;DHT22;10062;51.052;13.756;2022-09-04T14:59:46;29.90;1.00
19805;DHT22;10062;51.052;13.756;2022-09-04T15:02:26;29.70;1.00
19805;DHT22;10062;51.052;13.756;2022-09-04T15:05:05;29.40;1.00
19805;DHT22;10062;51.052;13.756;2022-09-04T15:07:52;29.30;1.00
19805;DHT22;10062;51.052;13.756;2022-09-04T15:10:34;29.30;1.00
19805;DHT22;10062;51.052;13.756;2022-09-04T15:13:45;29.10;1.00
19805;DHT22;10062;51.052;13.756;2022-09-04T15:16:27;29.10;1.00
19805;DHT22;10062;51.052;13.756;2022-09-04T15:19:04;29.10;1.00
19805;DHT22;10062;51.052;13.756;2022-09-04T15:21:44;28.90;1.00
19805;DHT22;10062;51.052;13.756;2022-09-04T15:24:25;28.80;1.00
19805;DHT22;10062;51.052;13.756;2022-09-04T15:27:03;28.70;1.00
19805;DHT22;10062;51.052;13.756;2022-09-04T15:29:38;28.70;1.00
19805;DHT22;10062;51.052;13.756;2022-09-04T15:32:12;28.80;1.00
19805;DHT22;10062;51.052;13.756;2022-09-04T15:34:50;28.80;1.00
19805;DHT22;10062;51.052;13.756;2022-09-04T15:37:37;28.80;1.00
19805;DHT22;10062;51.052;13.756;2022-09-04T15:40:13;28.90;1.00
19805;DHT22;10062;51.052;13.756;2022-09-04T15:42:55;30.70;1.00
19805;DHT22;10062;51.052;13.756;2022-09-04T15:45:34;29.00;1.00
19805;DHT22;10062;51.052;13.756;2022-09-04T15:48:21;29.00;1.00
19805;DHT22;10062;51.052;13.756;2022-09-04T15:51:12;29.10;1.00
19805;DHT22;10062;51.052;13.756;2022-09-04T15:54:05;29.10;1.00
19805;DHT22;10062;51.052;13.756;2022-09-04T15:56:39;28.90;1.00
19805;DHT22;10062;51.052;13.756;2022-09-04T15:59:18;28.70;1.00
19805;DHT22;10062;51.052;13.756;2022-09-04T16:02:00;28.50;1.00
19805;DHT22;10062;51.052;13.756;2022-09-04T16:04:37;28.30;1.00
19805;DHT22;10062;51.052;13.756;2022-09-04T16:07:34;28.30;1.00
19805;DHT22;10062;51.052;13.756;2022-09-04T16:10:15;28.30;1.00
19805;DHT22;10062;51.052;13.756;2022-09-04T16:12:56;28.30;1.00
19805;DHT22;10062;51.052;13.756;2022-09-04T16:15:31;28.30;1.00
19805;DHT22;10062;51.052;13.756;2022-09-04T16:18:16;28.20;1.00
19805;DHT22;10062;51.052;13.756;2022-09-04T16:20:52;28.10;1.00
19805;DHT22;10062;51.052;13.756;2022-09-04T16:23:27;27.90;1.00
19805;DHT22;10062;51.052;13.756;2022-09-04T16:26:08;27.70;1.00
19805;DHT22;10062;51.052;13.756;2022-09-04T16:28:44;27.40;1.00
19805;DHT22;10062;51.052;13.756;2022-09-04T16:31:24;27.20;1.00
19805;DHT22;10062;51.052;13.756;2022-09-04T16:34:04;27.10;1.00
19805;DHT22;10062;51.052;13.756;2022-09-04T16:36:40;27.10;1.00
19805;DHT22;10062;51.052;13.756;2022-09-04T16:39:23;27.00;1.00
19805;DHT22;10062;51.052;13.756;2022-09-04T16:42:08;27.00;1.00
19805;DHT22;10062;51.052;13.756;2022-09-04T16:44:46;26.80;1.00
19805;DHT22;10062;51.052;13.756;2022-09-04T16:47:25;26.80;1.00
19805;DHT22;10062;51.052;13.756;2022-09-04T16:50:07;26.70;1.00
19805;DHT22;10062;51.052;13.756;2022-09-04T16:52:53;26.60;1.00
19805;DHT22;10062;51.052;13.756;2022-09-04T16:55:31;26.40;1.00
19805;DHT22;10062;51.052;13.756;2022-09-04T16:58:18;26.40;1.00
19805;DHT22;10062;51.052;13.756;2022-09-04T17:00:56;26.40;1.00
19805;DHT22;10062;51.052;13.756;2022-09-04T17:03:39;26.20;1.00
19805;DHT22;10062;51.052;13.756;2022-09-04T17:06:18;26.20;1.00
19805;DHT22;10062;51.052;13.756;2022-09-04T17:08:57;26.20;1.00
19805;DHT22;10062;51.052;13.756;2022-09-04T17:11:35;26.30;1.00
19805;DHT22;10062;51.052;13.756;2022-09-04T17:14:16;26.20;1.00
19805;DHT22;10062;51.052;13.756;2022-09-04T17:16:53;26.10;1.00
19805;DHT22;10062;51.052;13.756;2022-09-04T17:19:26;25.90;1.00
19805;DHT22;10062;51.052;13.756;2022-09-04T17:22:11;25.70;1.00
19805;DHT22;10062;51.052;13.756;2022-09-04T17:25:11;25.60;1.00
19805;DHT22;10062;51.052;13.756;2022-09-04T17:27:48;25.40;1.00
19805;DHT22;10062;51.052;13.756;2022-09-04T17:30:33;25.40;1.00
19805;DHT22;10062;51.052;13.756;2022-09-04T17:33:11;25.40;1.00
19805;DHT22;10062;51.052;13.756;2022-09-04T17:35:50;25.10;1.00
19805;DHT22;10062;51.052;13.756;2022-09-04T17:38:25;25.10;1.00
19805;DHT22;10062;51.052;13.756;2022-09-04T17:41:09;24.90;1.00
19805;DHT22;10062;51.052;13.756;2022-09-04T17:44:01;24.80;1.00
19805;DHT22;10062;51.052;13.756;2022-09-04T17:46:37;24.70;1.00
19805;DHT22;10062;51.052;13.756;2022-09-04T17:49:14;24.60;1.00
19805;DHT22;10062;51.052;13.756;2022-09-04T17:51:53;24.40;1.00
19805;DHT22;10062;51.052;13.756;2022-09-04T17:54:27;24.30;1.00
19805;DHT22;10062;51.052;13.756;2022-09-04T17:57:03;24.30;1.00
19805;DHT22;10062;51.052;13.756;2022-09-04T17:59:40;24.30;1.00
19805;DHT22;10062;51.052;13.756;2022-09-04T18:02:18;24.30;1.00
19805;DHT22;10062;51.052;13.756;2022-09-04T18:04:53;24.20;1.00
19805;DHT22;10062;51.052;13.756;2022-09-04T18:07:29;24.00;1.00
19805;DHT22;10062;51.052;13.756;2022-09-04T18:10:10;23.90;1.00
19805;DHT22;10062;51.052;13.756;2022-09-04T18:12:51;23.90;1.00
19805;DHT22;10062;51.052;13.756;2022-09-04T18:15:29;23.90;1.00
19805;DHT22;10062;51.052;13.756;2022-09-04T18:18:11;23.80;1.00
19805;DHT22;10062;51.052;13.756;2022-09-04T18:20:49;23.70;1.00
19805;DHT22;10062;51.052;13.756;2022-09-04T18:23:38;23.80;1.00
19805;DHT22;10062;51.052;13.756;2022-09-04T18:26:17;23.70;1.00
19805;DHT22;10062;51.052;13.756;2022-09-04T18:28:56;23.70;1.00
19805;DHT22;10062;51.052;13.756;2022-09-04T18:31:34;23.60;1.00